sensor_id;sensor_type;location;lat;lon;timestamp;P1;durP1;ratioP1;P2;durP2;ratioP2
13368;SDS011;6753;52.520;13.450;2022-11-20T00:00:07;628.60;;;560.15;;
13368;SDS011;6753;52.520;13.450;2022-11-20T00:00:18;634.03;;;565.03;;
13368;SDS011;6753;52.520;13.450;2022-11-20T00:00:29;636.80;;;567.65;;
13368;SDS011;6753;52.520;13.450;2022-11-20T00:00:40;630.97;;;562.28;;
13368;SDS011;6753;52.520;13.450;2022-11-20T00:00:52;623.53;;;555.28;;
13368;SDS011;6753;52.520;13.450;2022-11-20T00:01:06;620.72;;;552.53;;
13368;SDS011;6753;52.520;13.450;2022-11-20T00:01:18;640.35;;;570.22;;
13368;SDS011;6753;52.520;13.450;2022-11-20T00:01:30;650.10;;;579.13;;
13368;SDS011;6753;52.520;13.450;2022-11-20T00:01:41;660.22;;;588.50;;
13368;SDS011;6753;52.520;13.450;2022-11-20T00:01:52;687.95;;;613.35;;
13368;SDS011;6753;52.520;13.450;2022-11-20T00:02:04;718.45;;;640.45;;
13368;SDS011;6753;52.520;13.450;2022-11-20T00:02:14;741.80;;;661.17;;
13368;SDS011;6753;52.520;13.450;2022-11-20T00:02:25;766.63;;;682.97;;
13368;SDS011;6753;52.520;13.450;2022-11-20T00:02:36;815.20;;;725.50;;
13368;SDS011;6753;52.520;13.450;2022-11-20T00:02:47;842.97;;;749.92;;
13368;SDS011;6753;52.520;13.450;2022-11-20T00:02:57;859.83;;;764.80;;
13368;SDS011;6753;52.520;13.450;2022-11-20T00:03:08;863.92;;;768.42;;
13368;SDS011;6753;52.520;13.450;2022-11-20T00:03:19;870.17;;;773.75;;
13368;SDS011;6753;52.520;13.450;2022-11-20T00:03:30;876.72;;;779.60;;
13368;SDS011;6753;52.520;13.450;2022-11-20T00:03:41;871.00;;;774.83;;
13368;SDS011;6753;52.520;13.450;2022-11-20T00:03:53;865.80;;;770.28;;
13368;SDS011;6753;52.520;13.450;2022-11-20T00:04:05;855.67;;;761.45;;
13368;SDS011;6753;52.520;13.450;2022-11-20T00:04:16;850.83;;;757.28;;
13368;SDS011;6753;52.520;13.450;2022-11-20T00:04:27;837.43;;;745.53;;
13368;SDS011;6753;52.520;13.450;2022-11-20T00:04:38;823.95;;;733.40;;
13368;SDS011;6753;52.520;13.450;2022-11-20T00:04:49;809.60;;;720.78;;
13368;SDS011;6753;52.520;13.450;2022-11-20T00:05:00;797.80;;;710.53;;
13368;SDS011;6753;52.520;13.450;2022-11-20T00:05:12;784.85;;;699.28;;
13368;SDS011;6753;52.520;13.450;2022-11-20T00:05:22;771.17;;;687.38;;
13368;SDS011;6753;52.520;13.450;2022-11-20T00:05:33;753.40;;;671.80;;
13368;SDS011;6753;52.520;13.450;2022-11-20T00:05:44;742.30;;;662.17;;
13368;SDS011;6753;52.520;13.450;2022-11-20T00:05:59;736.90;;;657.20;;
13368;SDS011;6753;52.520;13.450;2022-11-20T00:06:10;728.63;;;649.72;;
13368;SDS011;6753;52.520;13.450;2022-11-20T00:06:23;727.42;;;648.35;;
13368;SDS011;6753;52.520;13.450;2022-11-20T00:06:35;732.63;;;652.92;;
13368;SDS011;6753;52.520;13.450;2022-11-20T00:06:46;734.10;;;654.37;;
13368;SDS011;6753;52.520;13.450;2022-11-20T00:06:57;734.28;;;654.83;;
13368;SDS011;6753;52.520;13.450;2022-11-20T00:07:08;733.47;;;654.03;;
13368;SDS011;6753;52.520;13.450;2022-11-20T00:07:18;738.53;;;658.90;;
13368;SDS011;6753;52.520;13.450;2022-11-20T00:07:30;740.95;;;661.15;;
13368;SDS011;6753;52.520;13.450;2022-11-20T00:07:41;741.10;;;661.55;;
13368;SDS011;6753;52.520;13.450;2022-11-20T00:07:53;741.75;;;661.97;;
13368;SDS011;6753;52.520;13.450;2022-11-20T00:08:04;741.45;;;661.63;;
13368;SDS011;6753;52.520;13.450;2022-11-20T00:08:15;745.08;;;665.00;;
13368;SDS011;6753;52.520;13.450;2022-11-20T00:08:25;744.40;;;664.42;;
13368;SDS011;6753;52.520;13.450;2022-11-20T00:08:36;744.63;;;664.47;;
13368;SDS011;6753;52.520;13.450;2022-11-20T00:08:48;748.03;;;667.45;;
13368;SDS011;6753;52.520;13.450;2022-11-20T00:09:00;755.75;;;674.05;;
13368;SDS011;6753;52.520;13.450;2022-11-20T00:09:11;757.97;;;675.78;;
13368;SDS011;6753;52.520;13.450;2022-11-20T00:09:22;763.90;;;680.97;;
13368;SDS011;6753;52.520;13.450;2022-11-20T00:09:33;773.60;;;689.53;;
13368;SDS011;6753;52.520;13.450;2022-11-20T00:09:43;777.83;;;693.30;;
13368;SDS011;6753;52.520;13.450;2022-11-20T00:09:54;782.38;;;697.28;;
13368;SDS011;6753;52.520;13.450;2022-11-20T00:10:05;784.83;;;699.58;;
13368;SDS011;6753;52.520;13.450;2022-11-20T00:10:17;785.92;;;700.53;;
13368;SDS011;6753;52.520;13.450;2022-11-20T00:10:27;785.73;;;700.13;;
13368;SDS011;6753;52.520;13.450;2022-11-20T00:10:39;783.40;;;697.92;;
13368;SDS011;6753;52.520;13.450;2022-11-20T00:10:50;778.55;;;693.85;;
13368;SDS011;6753;52.520;13.450;2022-11-20T00:11:04;773.65;;;689.63;;
13368;SDS011;6753;52.520;13.450;2022-11-20T00:11:17;773.80;;;689.83;;
13368;SDS011;6753;52.520;13.450;2022-11-20T00:11:29;772.20;;;688.50;;
13368;SDS011;6753;52.520;13.450;2022-11-20T00:11:42;764.47;;;681.42;;
13368;SDS011;6753;52.520;13.450;2022-11-20T00:11:53;762.70;;;679.77;;
13368;SDS011;6753;52.520;13.450;2022-11-20T00:12:04;762.38;;;679.42;;
13368;SDS011;6753;52.520;13.450;2022-11-20T00:12:15;763.10;;;679.80;;
13368;SDS011;6753;52.520;13.450;2022-11-20T00:12:26;764.60;;;681.20;;
13368;SDS011;6753;52.520;13.450;2022-11-20T00:12:37;770.23;;;686.20;;
13368;SDS011;6753;52.520;13.450;2022-11-20T00:12:48;782.70;;;697.45;;
13368;SDS011;6753;52.520;13.450;2022-11-20T00:12:58;791.70;;;705.40;;
13368;SDS011;6753;52.520;13.450;2022-11-20T00:13:09;797.47;;;710.53;;
13368;SDS011;6753;52.520;13.450;2022-11-20T00:13:20;796.43;;;709.57;;
13368;SDS011;6753;52.520;13.450;2022-11-20T00:13:32;800.72;;;713.22;;
13368;SDS011;6753;52.520;13.450;2022-11-20T00:13:44;798.88;;;711.60;;
13368;SDS011;6753;52.520;13.450;2022-11-20T00:13:55;795.38;;;708.22;;
13368;SDS011;6753;52.520;13.450;2022-11-20T00:14:08;789.08;;;702.45;;
13368;SDS011;6753;52.520;13.450;2022-11-20T00:14:20;789.00;;;702.55;;
13368;SDS011;6753;52.520;13.450;2022-11-20T00:14:30;784.95;;;699.10;;
13368;SDS011;6753;52.520;13.450;2022-11-20T00:14:41;781.78;;;696.20;;
13368;SDS011;6753;52.520;13.450;2022-11-20T00:14:52;781.13;;;696.03;;
13368;SDS011;6753;52.520;13.450;2022-11-20T00:15:04;780.55;;;695.58;;
13368;SDS011;6753;52.520;13.450;2022-11-20T00:15:16;778.63;;;693.95;;
13368;SDS011;6753;52.520;13.450;2022-11-20T00:15:26;777.90;;;693.38;;
13368;SDS011;6753;52.520;13.450;2022-11-20T00:15:37;778.53;;;693.77;;
13368;SDS011;6753;52.520;13.450;2022-11-20T00:15:48;778.25;;;693.47;;
13368;SDS011;6753;52.520;13.450;2022-11-20T00:16:07;777.70;;;692.85;;
13368;SDS011;6753;52.520;13.450;2022-11-20T00:16:20;780.50;;;695.25;;
13368;SDS011;6753;52.520;13.450;2022-11-20T00:16:33;782.95;;;697.22;;
13368;SDS011;6753;52.520;13.450;2022-11-20T00:16:44;784.80;;;698.92;;
13368;SDS011;6753;52.520;13.450;2022-11-20T00:16:55;786.58;;;700.47;;
13368;SDS011;6753;52.520;13.450;2022-11-20T00:17:06;787.67;;;701.50;;
13368;SDS011;6753;52.520;13.450;2022-11-20T00:17:17;787.38;;;701.25;;
13368;SDS011;6753;52.520;13.450;2022-11-20T00:17:27;785.73;;;699.97;;
13368;SDS011;6753;52.520;13.450;2022-11-20T00:17:38;784.50;;;698.97;;
13368;SDS011;6753;52.520;13.450;2022-11-20T00:17:49;783.47;;;698.05;;
13368;SDS011;6753;52.520;13.450;2022-11-20T00:18:00;781.83;;;696.88;;
13368;SDS011;6753;52.520;13.450;2022-11-20T00:18:11;778.45;;;693.90;;
13368;SDS011;6753;52.520;13.450;2022-11-20T00:18:22;777.83;;;693.53;;
13368;SDS011;6753;52.520;13.450;2022-11-20T00:18:33;778.80;;;694.10;;
13368;SDS011;6753;52.520;13.450;2022-11-20T00:18:45;779.38;;;694.80;;
13368;SDS011;6753;52.520;13.450;2022-11-20T00:18:56;780.85;;;696.03;;
13368;SDS011;6753;52.520;13.450;2022-11-20T00:19:07;783.67;;;698.38;;
13368;SDS011;6753;52.520;13.450;2022-11-20T00:19:18;785.20;;;699.80;;
13368;SDS011;6753;52.520;13.450;2022-11-20T00:19:28;784.92;;;699.45;;
13368;SDS011;6753;52.520;13.450;2022-11-20T00:19:40;783.88;;;698.63;;
13368;SDS011;6753;52.520;13.450;2022-11-20T00:19:51;781.50;;;696.30;;
13368;SDS011;6753;52.520;13.450;2022-11-20T00:20:02;781.47;;;696.22;;
13368;SDS011;6753;52.520;13.450;2022-11-20T00:20:13;782.05;;;696.53;;
13368;SDS011;6753;52.520;13.450;2022-11-20T00:20:24;782.78;;;697.03;;
13368;SDS011;6753;52.520;13.450;2022-11-20T00:20:35;783.78;;;698.17;;
13368;SDS011;6753;52.520;13.450;2022-11-20T00:20:46;782.27;;;696.80;;
13368;SDS011;6753;52.520;13.450;2022-11-20T00:21:00;780.42;;;695.47;;
13368;SDS011;6753;52.520;13.450;2022-11-20T00:21:12;778.78;;;694.38;;
13368;SDS011;6753;52.520;13.450;2022-11-20T00:21:26;778.28;;;694.15;;
13368;SDS011;6753;52.520;13.450;2022-11-20T00:21:37;776.88;;;692.58;;
13368;SDS011;6753;52.520;13.450;2022-11-20T00:21:48;776.47;;;692.00;;
13368;SDS011;6753;52.520;13.450;2022-11-20T00:22:01;777.60;;;692.72;;
13368;SDS011;6753;52.520;13.450;2022-11-20T00:22:12;776.70;;;691.70;;
13368;SDS011;6753;52.520;13.450;2022-11-20T00:22:22;773.58;;;688.97;;
13368;SDS011;6753;52.520;13.450;2022-11-20T00:22:33;772.42;;;687.83;;
13368;SDS011;6753;52.520;13.450;2022-11-20T00:22:44;773.27;;;688.63;;
13368;SDS011;6753;52.520;13.450;2022-11-20T00:22:56;774.28;;;689.60;;
13368;SDS011;6753;52.520;13.450;2022-11-20T00:23:07;774.70;;;690.13;;
13368;SDS011;6753;52.520;13.450;2022-11-20T00:23:19;775.78;;;691.20;;
13368;SDS011;6753;52.520;13.450;2022-11-20T00:23:30;777.22;;;692.60;;
13368;SDS011;6753;52.520;13.450;2022-11-20T00:23:41;776.75;;;692.03;;
13368;SDS011;6753;52.520;13.450;2022-11-20T00:23:53;779.90;;;695.25;;
13368;SDS011;6753;52.520;13.450;2022-11-20T00:24:05;781.03;;;696.20;;
13368;SDS011;6753;52.520;13.450;2022-11-20T00:24:19;781.42;;;696.47;;
13368;SDS011;6753;52.520;13.450;2022-11-20T00:24:30;780.53;;;695.83;;
13368;SDS011;6753;52.520;13.450;2022-11-20T00:24:41;780.92;;;696.35;;
13368;SDS011;6753;52.520;13.450;2022-11-20T00:24:52;777.80;;;693.42;;
13368;SDS011;6753;52.520;13.450;2022-11-20T00:25:02;774.27;;;690.43;;
13368;SDS011;6753;52.520;13.450;2022-11-20T00:25:14;773.40;;;689.70;;
13368;SDS011;6753;52.520;13.450;2022-11-20T00:25:24;775.60;;;691.63;;
13368;SDS011;6753;52.520;13.450;2022-11-20T00:25:35;775.17;;;691.17;;
13368;SDS011;6753;52.520;13.450;2022-11-20T00:25:46;774.28;;;690.38;;
13368;SDS011;6753;52.520;13.450;2022-11-20T00:26:00;771.92;;;688.15;;
13368;SDS011;6753;52.520;13.450;2022-11-20T00:26:14;771.55;;;687.55;;
13368;SDS011;6753;52.520;13.450;2022-11-20T00:26:27;770.15;;;686.42;;
13368;SDS011;6753;52.520;13.450;2022-11-20T00:26:38;770.65;;;687.13;;
13368;SDS011;6753;52.520;13.450;2022-11-20T00:26:49;770.50;;;686.72;;
13368;SDS011;6753;52.520;13.450;2022-11-20T00:27:00;771.50;;;687.50;;
13368;SDS011;6753;52.520;13.450;2022-11-20T00:27:10;770.15;;;686.38;;
13368;SDS011;6753;52.520;13.450;2022-11-20T00:27:21;770.13;;;686.25;;
13368;SDS011;6753;52.520;13.450;2022-11-20T00:27:33;767.88;;;683.90;;
13368;SDS011;6753;52.520;13.450;2022-11-20T00:27:44;764.03;;;680.43;;
13368;SDS011;6753;52.520;13.450;2022-11-20T00:27:55;762.65;;;679.30;;
13368;SDS011;6753;52.520;13.450;2022-11-20T00:28:05;761.65;;;678.33;;
13368;SDS011;6753;52.520;13.450;2022-11-20T00:28:16;759.83;;;676.72;;
13368;SDS011;6753;52.520;13.450;2022-11-20T00:28:27;757.47;;;674.87;;
13368;SDS011;6753;52.520;13.450;2022-11-20T00:28:38;753.28;;;671.38;;
13368;SDS011;6753;52.520;13.450;2022-11-20T00:28:49;754.53;;;672.50;;
13368;SDS011;6753;52.520;13.450;2022-11-20T00:29:01;753.83;;;672.08;;
13368;SDS011;6753;52.520;13.450;2022-11-20T00:29:13;751.20;;;669.85;;
13368;SDS011;6753;52.520;13.450;2022-11-20T00:29:24;748.73;;;667.53;;
13368;SDS011;6753;52.520;13.450;2022-11-20T00:29:35;747.05;;;665.90;;
13368;SDS011;6753;52.520;13.450;2022-11-20T00:29:45;741.97;;;661.35;;
13368;SDS011;6753;52.520;13.450;2022-11-20T00:29:56;738.95;;;658.42;;
13368;SDS011;6753;52.520;13.450;2022-11-20T00:30:07;737.33;;;656.93;;
13368;SDS011;6753;52.520;13.450;2022-11-20T00:30:19;736.08;;;655.95;;
13368;SDS011;6753;52.520;13.450;2022-11-20T00:30:29;736.38;;;656.03;;
13368;SDS011;6753;52.520;13.450;2022-11-20T00:30:40;736.43;;;656.03;;
13368;SDS011;6753;52.520;13.450;2022-11-20T00:30:51;737.20;;;656.88;;
13368;SDS011;6753;52.520;13.450;2022-11-20T00:31:03;737.85;;;657.58;;
13368;SDS011;6753;52.520;13.450;2022-11-20T00:31:15;737.78;;;657.38;;
13368;SDS011;6753;52.520;13.450;2022-11-20T00:31:27;735.80;;;655.80;;
13368;SDS011;6753;52.520;13.450;2022-11-20T00:31:38;736.60;;;656.67;;
13368;SDS011;6753;52.520;13.450;2022-11-20T00:31:49;733.92;;;654.40;;
13368;SDS011;6753;52.520;13.450;2022-11-20T00:32:00;733.60;;;654.30;;
13368;SDS011;6753;52.520;13.450;2022-11-20T00:32:11;730.58;;;651.70;;
13368;SDS011;6753;52.520;13.450;2022-11-20T00:32:22;730.00;;;651.20;;
13368;SDS011;6753;52.520;13.450;2022-11-20T00:32:33;727.05;;;648.22;;
13368;SDS011;6753;52.520;13.450;2022-11-20T00:32:44;725.95;;;647.45;;
13368;SDS011;6753;52.520;13.450;2022-11-20T00:32:56;723.50;;;644.90;;
13368;SDS011;6753;52.520;13.450;2022-11-20T00:33:07;721.35;;;642.85;;
13368;SDS011;6753;52.520;13.450;2022-11-20T00:33:17;719.20;;;640.73;;
13368;SDS011;6753;52.520;13.450;2022-11-20T00:33:28;718.47;;;640.22;;
13368;SDS011;6753;52.520;13.450;2022-11-20T00:33:39;718.15;;;640.17;;
13368;SDS011;6753;52.520;13.450;2022-11-20T00:33:50;715.42;;;637.75;;
13368;SDS011;6753;52.520;13.450;2022-11-20T00:34:03;714.13;;;636.65;;
13368;SDS011;6753;52.520;13.450;2022-11-20T00:34:13;715.47;;;637.93;;
13368;SDS011;6753;52.520;13.450;2022-11-20T00:34:24;714.45;;;636.85;;
13368;SDS011;6753;52.520;13.450;2022-11-20T00:34:35;714.78;;;637.13;;
13368;SDS011;6753;52.520;13.450;2022-11-20T00:34:46;713.42;;;636.10;;
13368;SDS011;6753;52.520;13.450;2022-11-20T00:34:56;712.90;;;635.57;;
13368;SDS011;6753;52.520;13.450;2022-11-20T00:35:07;711.38;;;634.17;;
13368;SDS011;6753;52.520;13.450;2022-11-20T00:35:18;711.08;;;634.05;;
13368;SDS011;6753;52.520;13.450;2022-11-20T00:35:30;710.28;;;633.53;;
13368;SDS011;6753;52.520;13.450;2022-11-20T00:35:41;711.40;;;634.30;;
13368;SDS011;6753;52.520;13.450;2022-11-20T00:35:51;712.42;;;635.10;;
13368;SDS011;6753;52.520;13.450;2022-11-20T00:36:03;713.10;;;635.78;;
13368;SDS011;6753;52.520;13.450;2022-11-20T00:36:16;711.40;;;634.22;;
13368;SDS011;6753;52.520;13.450;2022-11-20T00:36:28;711.53;;;634.05;;
13368;SDS011;6753;52.520;13.450;2022-11-20T00:36:42;714.47;;;636.83;;
13368;SDS011;6753;52.520;13.450;2022-11-20T00:36:54;716.15;;;638.42;;
13368;SDS011;6753;52.520;13.450;2022-11-20T00:37:04;719.88;;;641.90;;
13368;SDS011;6753;52.520;13.450;2022-11-20T00:37:15;722.03;;;644.03;;
13368;SDS011;6753;52.520;13.450;2022-11-20T00:37:26;720.60;;;642.80;;
13368;SDS011;6753;52.520;13.450;2022-11-20T00:37:37;717.20;;;639.72;;
13368;SDS011;6753;52.520;13.450;2022-11-20T00:37:48;715.85;;;638.67;;
13368;SDS011;6753;52.520;13.450;2022-11-20T00:38:00;711.13;;;634.42;;
13368;SDS011;6753;52.520;13.450;2022-11-20T00:38:11;708.00;;;631.50;;
13368;SDS011;6753;52.520;13.450;2022-11-20T00:38:21;702.25;;;625.95;;
13368;SDS011;6753;52.520;13.450;2022-11-20T00:38:32;698.83;;;623.00;;
13368;SDS011;6753;52.520;13.450;2022-11-20T00:38:44;694.03;;;618.47;;
13368;SDS011;6753;52.520;13.450;2022-11-20T00:38:56;691.80;;;616.25;;
13368;SDS011;6753;52.520;13.450;2022-11-20T00:39:08;689.50;;;614.10;;
13368;SDS011;6753;52.520;13.450;2022-11-20T00:39:19;686.60;;;611.42;;
13368;SDS011;6753;52.520;13.450;2022-11-20T00:39:29;684.13;;;609.33;;
13368;SDS011;6753;52.520;13.450;2022-11-20T00:39:40;682.27;;;607.67;;
13368;SDS011;6753;52.520;13.450;2022-11-20T00:39:52;681.05;;;606.63;;
13368;SDS011;6753;52.520;13.450;2022-11-20T00:40:03;679.35;;;605.05;;
13368;SDS011;6753;52.520;13.450;2022-11-20T00:40:15;680.13;;;606.08;;
13368;SDS011;6753;52.520;13.450;2022-11-20T00:40:25;681.38;;;607.20;;
13368;SDS011;6753;52.520;13.450;2022-11-20T00:40:36;681.20;;;606.90;;
13368;SDS011;6753;52.520;13.450;2022-11-20T00:40:53;679.92;;;605.72;;
13368;SDS011;6753;52.520;13.450;2022-11-20T00:41:06;678.03;;;604.25;;
13368;SDS011;6753;52.520;13.450;2022-11-20T00:41:19;673.35;;;600.00;;
13368;SDS011;6753;52.520;13.450;2022-11-20T00:41:31;669.72;;;596.78;;
13368;SDS011;6753;52.520;13.450;2022-11-20T00:41:42;669.13;;;596.42;;
13368;SDS011;6753;52.520;13.450;2022-11-20T00:41:52;666.87;;;594.27;;
13368;SDS011;6753;52.520;13.450;2022-11-20T00:42:03;664.53;;;592.13;;
13368;SDS011;6753;52.520;13.450;2022-11-20T00:42:14;664.03;;;591.53;;
13368;SDS011;6753;52.520;13.450;2022-11-20T00:42:25;663.53;;;590.95;;
13368;SDS011;6753;52.520;13.450;2022-11-20T00:42:35;662.20;;;589.60;;
13368;SDS011;6753;52.520;13.450;2022-11-20T00:42:46;660.65;;;588.00;;
13368;SDS011;6753;52.520;13.450;2022-11-20T00:42:57;658.90;;;586.53;;
13368;SDS011;6753;52.520;13.450;2022-11-20T00:43:09;657.85;;;585.65;;
13368;SDS011;6753;52.520;13.450;2022-11-20T00:43:19;656.38;;;584.47;;
13368;SDS011;6753;52.520;13.450;2022-11-20T00:43:30;655.20;;;583.38;;
13368;SDS011;6753;52.520;13.450;2022-11-20T00:43:41;656.28;;;584.45;;
13368;SDS011;6753;52.520;13.450;2022-11-20T00:43:52;658.88;;;586.78;;
13368;SDS011;6753;52.520;13.450;2022-11-20T00:44:04;658.95;;;587.00;;
13368;SDS011;6753;52.520;13.450;2022-11-20T00:44:15;659.73;;;587.53;;
13368;SDS011;6753;52.520;13.450;2022-11-20T00:44:26;658.85;;;586.75;;
13368;SDS011;6753;52.520;13.450;2022-11-20T00:44:37;657.42;;;585.58;;
13368;SDS011;6753;52.520;13.450;2022-11-20T00:44:48;654.83;;;583.23;;
13368;SDS011;6753;52.520;13.450;2022-11-20T00:44:59;652.92;;;581.50;;
13368;SDS011;6753;52.520;13.450;2022-11-20T00:45:09;651.72;;;580.33;;
13368;SDS011;6753;52.520;13.450;2022-11-20T00:45:20;652.28;;;580.97;;
13368;SDS011;6753;52.520;13.450;2022-11-20T00:45:31;651.13;;;580.08;;
13368;SDS011;6753;52.520;13.450;2022-11-20T00:45:43;647.92;;;576.92;;
13368;SDS011;6753;52.520;13.450;2022-11-20T00:45:57;647.78;;;576.92;;
13368;SDS011;6753;52.520;13.450;2022-11-20T00:46:09;646.67;;;575.78;;
13368;SDS011;6753;52.520;13.450;2022-11-20T00:46:22;643.20;;;572.40;;
13368;SDS011;6753;52.520;13.450;2022-11-20T00:46:34;639.38;;;568.80;;
13368;SDS011;6753;52.520;13.450;2022-11-20T00:46:45;637.30;;;567.00;;
13368;SDS011;6753;52.520;13.450;2022-11-20T00:46:56;634.83;;;564.55;;
13368;SDS011;6753;52.520;13.450;2022-11-20T00:47:08;634.92;;;564.80;;
13368;SDS011;6753;52.520;13.450;2022-11-20T00:47:18;633.88;;;563.95;;
13368;SDS011;6753;52.520;13.450;2022-11-20T00:47:29;634.90;;;565.00;;
13368;SDS011;6753;52.520;13.450;2022-11-20T00:47:40;635.85;;;565.67;;
13368;SDS011;6753;52.520;13.450;2022-11-20T00:47:51;635.63;;;565.70;;
13368;SDS011;6753;52.520;13.450;2022-11-20T00:48:01;634.58;;;564.88;;
13368;SDS011;6753;52.520;13.450;2022-11-20T00:48:12;631.23;;;561.73;;
13368;SDS011;6753;52.520;13.450;2022-11-20T00:48:23;629.88;;;560.45;;
13368;SDS011;6753;52.520;13.450;2022-11-20T00:48:34;629.80;;;560.50;;
13368;SDS011;6753;52.520;13.450;2022-11-20T00:48:46;631.00;;;561.60;;
13368;SDS011;6753;52.520;13.450;2022-11-20T00:48:57;624.85;;;555.75;;
13368;SDS011;6753;52.520;13.450;2022-11-20T00:49:08;620.53;;;552.03;;
13368;SDS011;6753;52.520;13.450;2022-11-20T00:49:19;615.55;;;547.60;;
13368;SDS011;6753;52.520;13.450;2022-11-20T00:49:30;611.97;;;544.22;;
13368;SDS011;6753;52.520;13.450;2022-11-20T00:49:40;606.57;;;539.33;;
13368;SDS011;6753;52.520;13.450;2022-11-20T00:49:51;604.63;;;537.63;;
13368;SDS011;6753;52.520;13.450;2022-11-20T00:50:03;604.35;;;537.35;;
13368;SDS011;6753;52.520;13.450;2022-11-20T00:50:14;604.70;;;537.58;;
13368;SDS011;6753;52.520;13.450;2022-11-20T00:50:25;603.05;;;536.17;;
13368;SDS011;6753;52.520;13.450;2022-11-20T00:50:36;602.65;;;533.85;;
13368;SDS011;6753;52.520;13.450;2022-11-20T00:50:47;600.05;;;529.58;;
13368;SDS011;6753;52.520;13.450;2022-11-20T00:50:58;597.90;;;528.47;;
13368;SDS011;6753;52.520;13.450;2022-11-20T00:51:09;596.95;;;528.25;;
13368;SDS011;6753;52.520;13.450;2022-11-20T00:51:23;594.00;;;525.30;;
13368;SDS011;6753;52.520;13.450;2022-11-20T00:51:35;592.80;;;526.13;;
13368;SDS011;6753;52.520;13.450;2022-11-20T00:51:47;593.20;;;527.40;;
13368;SDS011;6753;52.520;13.450;2022-11-20T00:51:58;591.78;;;525.33;;
13368;SDS011;6753;52.520;13.450;2022-11-20T00:52:09;591.13;;;525.10;;
13368;SDS011;6753;52.520;13.450;2022-11-20T00:52:19;594.28;;;528.40;;
13368;SDS011;6753;52.520;13.450;2022-11-20T00:52:30;593.72;;;527.90;;
13368;SDS011;6753;52.520;13.450;2022-11-20T00:52:41;595.17;;;529.33;;
13368;SDS011;6753;52.520;13.450;2022-11-20T00:52:52;595.43;;;529.63;;
13368;SDS011;6753;52.520;13.450;2022-11-20T00:53:04;596.60;;;530.85;;
13368;SDS011;6753;52.520;13.450;2022-11-20T00:53:15;595.53;;;529.67;;
13368;SDS011;6753;52.520;13.450;2022-11-20T00:53:27;595.88;;;529.78;;
13368;SDS011;6753;52.520;13.450;2022-11-20T00:53:38;597.90;;;530.67;;
13368;SDS011;6753;52.520;13.450;2022-11-20T00:53:49;597.25;;;528.92;;
13368;SDS011;6753;52.520;13.450;2022-11-20T00:53:59;598.75;;;529.08;;
13368;SDS011;6753;52.520;13.450;2022-11-20T00:54:12;599.88;;;528.35;;
13368;SDS011;6753;52.520;13.450;2022-11-20T00:54:22;597.38;;;528.67;;
13368;SDS011;6753;52.520;13.450;2022-11-20T00:54:34;596.17;;;527.80;;
13368;SDS011;6753;52.520;13.450;2022-11-20T00:54:45;594.23;;;528.07;;
13368;SDS011;6753;52.520;13.450;2022-11-20T00:54:56;595.58;;;528.70;;
13368;SDS011;6753;52.520;13.450;2022-11-20T00:55:06;594.30;;;528.28;;
13368;SDS011;6753;52.520;13.450;2022-11-20T00:55:17;592.20;;;525.80;;
13368;SDS011;6753;52.520;13.450;2022-11-20T00:55:28;590.40;;;523.80;;
13368;SDS011;6753;52.520;13.450;2022-11-20T00:55:39;590.75;;;522.42;;
13368;SDS011;6753;52.520;13.450;2022-11-20T00:55:53;588.53;;;520.38;;
13368;SDS011;6753;52.520;13.450;2022-11-20T00:56:05;585.58;;;516.33;;
13368;SDS011;6753;52.520;13.450;2022-11-20T00:56:20;586.33;;;514.97;;
13368;SDS011;6753;52.520;13.450;2022-11-20T00:56:31;585.22;;;513.20;;
13368;SDS011;6753;52.520;13.450;2022-11-20T00:56:41;583.10;;;511.13;;
13368;SDS011;6753;52.520;13.450;2022-11-20T00:56:52;584.23;;;511.17;;
13368;SDS011;6753;52.520;13.450;2022-11-20T00:57:03;587.10;;;512.20;;
13368;SDS011;6753;52.520;13.450;2022-11-20T00:57:14;584.67;;;512.40;;
13368;SDS011;6753;52.520;13.450;2022-11-20T00:57:26;583.22;;;510.88;;
13368;SDS011;6753;52.520;13.450;2022-11-20T00:57:37;582.20;;;508.50;;
13368;SDS011;6753;52.520;13.450;2022-11-20T00:57:47;580.23;;;506.03;;
13368;SDS011;6753;52.520;13.450;2022-11-20T00:57:58;575.83;;;503.85;;
13368;SDS011;6753;52.520;13.450;2022-11-20T00:58:09;573.05;;;501.35;;
13368;SDS011;6753;52.520;13.450;2022-11-20T00:58:20;571.83;;;499.10;;
13368;SDS011;6753;52.520;13.450;2022-11-20T00:58:32;571.58;;;500.48;;
13368;SDS011;6753;52.520;13.450;2022-11-20T00:58:46;571.67;;;501.08;;
13368;SDS011;6753;52.520;13.450;2022-11-20T00:58:59;571.42;;;499.52;;
13368;SDS011;6753;52.520;13.450;2022-11-20T00:59:10;571.95;;;499.00;;
13368;SDS011;6753;52.520;13.450;2022-11-20T00:59:21;571.10;;;499.10;;
13368;SDS011;6753;52.520;13.450;2022-11-20T00:59:32;569.92;;;498.45;;
13368;SDS011;6753;52.520;13.450;2022-11-20T00:59:42;570.73;;;499.80;;
13368;SDS011;6753;52.520;13.450;2022-11-20T00:59:53;569.42;;;500.67;;
13368;SDS011;6753;52.520;13.450;2022-11-20T01:00:05;569.78;;;501.38;;
13368;SDS011;6753;52.520;13.450;2022-11-20T01:00:16;569.70;;;499.83;;
13368;SDS011;6753;52.520;13.450;2022-11-20T01:00:28;570.72;;;499.88;;
13368;SDS011;6753;52.520;13.450;2022-11-20T01:00:39;569.88;;;498.35;;
13368;SDS011;6753;52.520;13.450;2022-11-20T01:00:50;569.60;;;497.70;;
13368;SDS011;6753;52.520;13.450;2022-11-20T01:01:01;570.67;;;499.00;;
13368;SDS011;6753;52.520;13.450;2022-11-20T01:01:13;571.05;;;499.48;;
13368;SDS011;6753;52.520;13.450;2022-11-20T01:01:25;569.25;;;498.60;;
13368;SDS011;6753;52.520;13.450;2022-11-20T01:01:38;569.00;;;499.63;;
13368;SDS011;6753;52.520;13.450;2022-11-20T01:01:50;568.65;;;498.50;;
13368;SDS011;6753;52.520;13.450;2022-11-20T01:02:01;568.38;;;496.25;;
13368;SDS011;6753;52.520;13.450;2022-11-20T01:02:12;566.87;;;494.43;;
13368;SDS011;6753;52.520;13.450;2022-11-20T01:02:23;568.17;;;494.95;;
13368;SDS011;6753;52.520;13.450;2022-11-20T01:02:33;569.17;;;494.48;;
13368;SDS011;6753;52.520;13.450;2022-11-20T01:02:44;568.75;;;492.40;;
13368;SDS011;6753;52.520;13.450;2022-11-20T01:02:55;570.20;;;493.80;;
13368;SDS011;6753;52.520;13.450;2022-11-20T01:03:06;568.05;;;492.75;;
13368;SDS011;6753;52.520;13.450;2022-11-20T01:03:16;566.65;;;491.05;;
13368;SDS011;6753;52.520;13.450;2022-11-20T01:03:30;564.70;;;489.98;;
13368;SDS011;6753;52.520;13.450;2022-11-20T01:03:43;562.55;;;490.52;;
13368;SDS011;6753;52.520;13.450;2022-11-20T01:03:55;559.17;;;487.70;;
13368;SDS011;6753;52.520;13.450;2022-11-20T01:04:07;557.78;;;486.30;;
13368;SDS011;6753;52.520;13.450;2022-11-20T01:04:18;558.47;;;486.40;;
13368;SDS011;6753;52.520;13.450;2022-11-20T01:04:29;557.53;;;484.45;;